createdAt,value
2019-06-26T00:18:18.101Z,21.55
2019-06-26T00:38:28.915Z,25.90
2019-06-26T00:58:38.694Z,19.95
2019-06-26T01:18:47.669Z,19.23
2019-06-26T01:38:56.871Z,15.68
2019-06-26T01:59:06.711Z,22.62
2019-06-26T02:19:20.571Z,17.45
2019-06-26T02:39:34.384Z,18.05
2019-06-26T02:59:44.233Z,16.55
2019-06-26T03:19:53.258Z,22.87
2019-06-26T03:40:03.247Z,18.20
2019-06-26T04:00:13.982Z,16.77
2019-06-26T04:20:23.753Z,15.38
2019-06-26T04:40:32.593Z,15.08
2019-06-26T05:00:42.044Z,14.07
2019-06-26T05:20:52.203Z,12.30
2019-06-26T05:41:03.824Z,11.03
2019-06-26T06:01:13.900Z,10.10
2019-06-26T06:21:23.555Z,11.73
2019-06-26T06:41:34.284Z,10.33
2019-06-26T07:01:46.315Z,10.80
2019-06-26T07:21:55.875Z,12.47
2019-06-26T07:42:05.700Z,13.72
2019-06-26T08:02:13.940Z,11.30
2019-06-26T08:22:22.705Z,12.80
2019-06-26T08:42:32.863Z,8.90
2019-06-26T09:02:43.985Z,10.32
2019-06-26T09:22:55.751Z,7.50
2019-06-26T09:43:05.328Z,7.83
2019-06-26T10:03:15.269Z,10.33
2019-06-26T10:43:33.916Z,6.17
2019-06-26T11:03:43.835Z,5.10
2019-06-26T11:23:54.464Z,4.67
2019-06-26T11:44:05.037Z,6.17
2019-06-26T12:05:42.087Z,6.10
2019-06-26T12:25:54.297Z,7.35
2019-06-26T12:46:04.409Z,5.22
2019-06-26T13:06:14.231Z,7.03
2019-06-26T13:26:29.531Z,6.12
2019-06-26T13:46:39.125Z,5.20
2019-06-26T14:06:52.720Z,6.75
2019-06-26T14:27:01.771Z,6.20
2019-06-26T14:47:11.841Z,10.28
2019-06-26T15:07:21.612Z,8.08
2019-06-26T15:27:31.850Z,6.72
2019-06-26T15:47:43.447Z,8.15
2019-06-26T16:07:53.569Z,9.55
2019-06-26T16:28:05.775Z,5.37
2019-06-26T16:48:15.103Z,6.90
2019-06-26T17:08:24.776Z,10.78
2019-06-26T17:48:44.120Z,6.28
2019-06-26T18:08:52.640Z,12.98
2019-06-26T18:29:02.089Z,8.35
2019-06-26T18:49:14.870Z,10.65
2019-06-26T19:09:24.531Z,14.37
2019-06-26T19:29:34.051Z,13.15
2019-06-26T19:49:44.483Z,20.55
2019-06-26T20:09:53.118Z,28.85
2019-06-26T20:30:02.913Z,39.60
2019-06-26T20:50:14.663Z,28.77
2019-06-26T21:10:24.583Z,19.98
2019-06-26T21:30:38.067Z,18.37
2019-06-26T21:50:47.573Z,17.07
2019-06-26T22:10:56.082Z,16.57
2019-06-26T22:31:08.681Z,15.63
2019-06-26T22:51:29.375Z,15.60
2019-06-26T23:11:39.039Z,14.43
2019-06-26T23:31:51.330Z,13.32
2019-06-26T23:52:01.567Z,14.55
